Time;durP1;ratioP1;P1;durP2;ratioP2;P2;SDS_P1;SDS_P2;PMS_P1;PMS_P2;Temp;Humidity;BMP_temperature;BMP_pressure;BME280_temperature;BME280_humidity;BME280_pressure;Samples;Min_cycle;Max_cycle;Signal;HPM_P1;HPM_P2
2023/10/04 00:00:19;;;;;;;;;4.00;0.75;;;;;17.25;55.28;102572.59;5036844;28;45210;-42
2023/10/04 00:02:45;;;;;;;;;2.50;1.00;;;;;17.24;55.69;102574.44;5036528;28;45496;-42
2023/10/04 00:05:15;;;;;;;;;2.75;1.00;;;;;17.06;55.61;102547.41;5036273;28;46264;-42
2023/10/04 00:07:42;;;;;;;;;1.00;1.00;;;;;17.15;55.56;102568.09;5052131;28;45317;-41
2023/10/04 00:10:08;;;;;;;;;3.75;2.00;;;;;17.03;55.30;102549.56;5060122;28;45366;-42
2023/10/04 00:12:33;;;;;;;;;1.33;1.00;;;;;17.12;55.62;102568.38;5060169;28;45375;-41
2023/10/04 00:14:58;;;;;;;;;1.00;1.00;;;;;17.10;55.57;102562.28;5059944;28;45345;-41
2023/10/04 00:17:24;;;;;;;;;3.67;1.67;;;;;17.10;55.75;102574.88;5059934;28;45298;-42
2023/10/04 00:19:49;;;;;;;;;3.75;0.25;;;;;17.06;55.53;102565.41;5060241;28;45390;-42
2023/10/04 00:22:18;;;;;;;;;1.00;1.00;;;;;17.03;55.90;102566.56;5060081;28;45491;-41
2023/10/04 00:24:44;;;;;;;;;0.75;0.75;;;;;17.00;55.85;102566.00;5074311;28;46017;-42
2023/10/04 00:27:09;;;;;;;;;4.00;0.67;;;;;16.99;55.85;102556.22;5079895;28;45506;-42
2023/10/04 00:29:35;;;;;;;;;2.00;2.00;;;;;16.97;56.27;102564.44;5080178;28;45177;-41
2023/10/04 00:32:00;;;;;;;;;1.00;1.00;;;;;16.95;56.05;102563.72;5080153;28;45367;-42
2023/10/04 00:34:26;;;;;;;;;3.00;0.00;;;;;16.92;56.52;102559.47;5079900;28;46457;-41
2023/10/04 00:36:52;;;;;;;;;1.00;1.00;;;;;16.89;56.55;102556.22;5079498;28;45474;-41
2023/10/04 00:39:18;;;;;;;;;2.00;2.00;;;;;16.88;56.14;102563.44;5080181;28;45451;-41
2023/10/04 00:41:50;;;;;;;;;3.00;1.33;;;;;16.86;56.65;102562.75;5078174;28;45492;-41
2023/10/04 00:44:15;;;;;;;;;1.00;1.00;;;;;16.85;56.62;102555.66;5079815;28;47021;-41
2023/10/04 00:46:45;;;;;;;;;4.00;1.00;;;;;16.73;56.67;102529.97;5078638;28;45474;-41
2023/10/04 00:49:11;;;;;;;;;2.33;1.00;;;;;16.85;56.78;102562.88;5080008;28;45327;-42
2023/10/04 00:51:36;;;;;;;;;2.00;0.00;;;;;16.82;56.79;102557.81;5079758;28;45216;-41
2023/10/04 00:54:07;;;;;;;;;4.00;2.00;;;;;16.80;56.48;102555.25;5079267;28;45980;-41
2023/10/04 00:56:38;;;;;;;;;4.00;1.00;;;;;16.80;56.77;102557.09;5079351;28;45247;-41
2023/10/04 00:59:04;;;;;;;;;1.33;1.33;;;;;16.80;56.89;102559.78;5077189;28;45256;-41
2023/10/04 01:01:31;;;;;;;;;2.25;0.00;;;;;16.63;56.84;102535.28;5079502;28;45347;-41
2023/10/04 01:03:57;;;;;;;;;1.00;1.00;;;;;16.72;57.02;102547.03;5079133;28;46222;-40
2023/10/04 01:06:22;;;;;;;;;1.00;0.33;;;;;16.75;56.74;102556.69;5078248;28;45474;-41
2023/10/04 01:08:48;;;;;;;;;2.00;2.00;;;;;16.74;57.04;102555.00;5079397;28;45403;-41
2023/10/04 01:11:13;;;;;;;;;2.00;0.00;;;;;16.69;57.20;102561.63;5079533;28;45585;-40
2023/10/04 01:13:40;;;;;;;;;0.67;0.67;;;;;16.68;57.25;102562.59;5079331;28;47091;-42
2023/10/04 01:16:09;;;;;;;;;4.00;0.33;;;;;16.67;57.20;102560.03;5077407;28;45319;-41
2023/10/04 01:18:35;;;;;;;;;1.00;0.00;;;;;16.67;57.31;102574.31;5079216;28;45313;-42
2023/10/04 01:21:00;;;;;;;;;3.67;0.00;;;;;16.61;57.30;102561.47;5079587;28;45237;-41
2023/10/04 01:23:27;;;;;;;;;2.00;2.00;;;;;16.63;57.52;102570.22;5078993;28;45997;-41
2023/10/04 01:25:53;;;;;;;;;2.00;0.00;;;;;16.57;57.44;102567.28;5079109;28;45341;-41
2023/10/04 01:28:27;;;;;;;;;2.75;1.25;;;;;16.58;57.80;102571.66;5079110;28;45488;-41
2023/10/04 01:30:54;;;;;;;;;3.00;1.33;;;;;16.55;57.73;102578.16;5076881;28;45362;-42
2023/10/04 01:33:19;;;;;;;;;3.00;1.00;;;;;16.55;57.60;102577.31;5060793;28;46154;-42
2023/10/04 01:35:46;;;;;;;;;1.00;1.00;;;;;16.52;57.80;102575.75;5078791;28;47821;-46
2023/10/04 01:38:13;;;;;;;;;1.67;1.33;;;;;16.52;58.03;102572.19;5078712;28;45284;-45
2023/10/04 01:40:39;;;;;;;;;10.00;1.00;;;;;16.36;58.05;102546.75;5079162;28;45492;-43
2023/10/04 01:43:17;;;;;;;;;2.00;0.67;;;;;16.44;58.00;102564.88;5078609;28;47011;-42
2023/10/04 01:45:44;;;;;;;;;3.33;1.00;;;;;16.44;58.02;102562.19;5078919;28;45308;-42
2023/10/04 01:48:10;;;;;;;;;1.00;1.00;;;;;16.39;58.40;102549.19;5078823;28;45272;-43
2023/10/04 01:50:36;;;;;;;;;2.33;1.00;;;;;16.41;58.35;102546.34;5076849;28;45431;-41
2023/10/04 01:53:01;;;;;;;;;3.00;1.00;;;;;16.41;58.32;102549.88;5078622;28;45944;-41
2023/10/04 01:55:26;;;;;;;;;5.00;2.33;;;;;16.40;58.18;102548.19;5078517;28;45422;-40
2023/10/04 01:57:52;;;;;;;;;4.67;0.00;;;;;16.30;58.50;102530.34;5079000;28;45215;-42
2023/10/04 02:00:19;;;;;;;;;4.00;2.33;;;;;16.38;58.45;102543.94;5078979;28;45197;-41
2023/10/04 02:02:45;;;;;;;;;3.00;0.33;;;;;16.36;58.34;102541.41;5077650;28;45465;-41
2023/10/04 02:05:15;;;;;;;;;1.00;1.00;;;;;16.35;58.84;102538.81;5078482;28;45381;-42
2023/10/04 02:07:40;;;;;;;;;3.00;1.00;;;;;16.34;58.64;102529.09;5076377;28;45478;-41
2023/10/04 02:10:09;;;;;;;;;6.33;2.00;;;;;16.32;58.55;102523.88;5078486;28;45331;-43
2023/10/04 02:12:34;;;;;;;;;3.00;1.00;;;;;16.33;58.91;102528.25;5078444;28;46250;-42
2023/10/04 02:15:00;;;;;;;;;3.00;1.67;;;;;16.30;58.87;102527.66;5078362;28;45201;-41
2023/10/04 02:17:25;;;;;;;;;7.33;1.67;;;;;16.27;58.83;102519.91;5078493;28;45399;-43
2023/10/04 02:19:54;;;;;;;;;1.33;1.33;;;;;16.28;58.84;102527.81;5078669;28;45535;-42
2023/10/04 02:22:19;;;;;;;;;5.00;1.00;;;;;16.30;58.94;102533.03;5078140;28;47168;-41
2023/10/04 02:24:45;;;;;;;;;3.67;1.00;;;;;16.30;59.30;102533.03;5076000;28;46066;-42
2023/10/04 02:27:11;;;;;;;;;1.00;1.00;;;;;16.30;59.05;102535.72;5078449;28;45323;-41
2023/10/04 02:29:38;;;;;;;;;3.33;2.00;;;;;16.29;59.06;102537.56;5077604;28;45478;-42
2023/10/04 02:32:09;;;;;;;;;5.00;2.33;;;;;16.28;59.23;102537.72;5077296;28;47171;-41
2023/10/04 02:34:35;;;;;;;;;3.00;0.00;;;;;16.27;59.15;102534.19;5077782;28;45445;-41
2023/10/04 02:37:05;;;;;;;;;1.67;1.00;;;;;16.27;59.03;102530.66;5060259;28;45504;-43
2023/10/04 02:39:30;;;;;;;;;1.33;1.00;;;;;16.24;59.10;102507.59;5075802;28;45549;-41
2023/10/04 02:41:56;;;;;;;;;1.00;1.00;;;;;16.20;58.88;102504.34;5077808;28;45369;-42
2023/10/04 02:44:21;;;;;;;;;2.33;0.00;;;;;16.20;59.09;102511.56;5077834;28;51999;-42
2023/10/04 02:46:48;;;;;;;;;8.67;2.33;;;;;16.19;59.30;102520.59;5078179;28;45454;-41
2023/10/04 02:49:14;;;;;;;;;3.67;1.33;;;;;16.17;59.23;102527.94;5078117;28;45328;-42
2023/10/04 02:51:39;;;;;;;;;0.67;0.67;;;;;16.17;59.66;102533.31;5077705;28;46028;-41
2023/10/04 02:54:04;;;;;;;;;3.33;1.00;;;;;16.03;59.60;102504.19;5077726;28;45355;-41
2023/10/04 02:56:30;;;;;;;;;2.00;1.00;;;;;16.15;59.44;102528.09;5076244;28;45433;-41
2023/10/04 02:58:56;;;;;;;;;2.67;1.00;;;;;16.13;59.95;102535.41;5078145;28;45261;-41
2023/10/04 03:01:26;;;;;;;;;3.67;1.00;;;;;16.12;59.85;102538.25;5077015;28;47270;-41
2023/10/04 03:03:52;;;;;;;;;4.33;1.33;;;;;16.14;59.97;102544.34;5077927;28;45423;-41
2023/10/04 03:06:22;;;;;;;;;1.33;1.00;;;;;16.13;60.06;102548.00;5077781;28;45331;-41
2023/10/04 03:08:50;;;;;;;;;2.00;2.00;;;;;16.13;60.01;102548.00;5077631;28;45185;-41
2023/10/04 03:11:16;;;;;;;;;4.33;1.00;;;;;16.13;59.83;102550.69;5075945;28;45407;-40
2023/10/04 03:13:41;;;;;;;;;1.67;1.00;;;;;16.13;60.07;102550.69;5077338;28;45383;-41
2023/10/04 03:16:07;;;;;;;;;4.33;2.00;;;;;16.12;60.35;102562.41;5077749;28;45441;-41
2023/10/04 03:18:35;;;;;;;;;4.33;1.00;;;;;16.11;60.18;102556.22;5077603;28;45457;-41
2023/10/04 03:23:32;;;;;;;;;7.00;1.00;;;;;16.10;60.39;102551.00;5059227;28;45304;-42
2023/10/04 03:26:01;;;;;;;;;3.67;1.00;;;;;16.10;60.22;102554.50;5077198;28;45419;-40
2023/10/04 03:28:27;;;;;;;;;7.67;2.00;;;;;16.09;60.81;102555.47;5077667;28;45445;-41
2023/10/04 03:30:56;;;;;;;;;2.00;1.00;;;;;16.09;60.32;102554.63;5036198;28;46798;-40
2023/10/04 03:33:21;;;;;;;;;5.00;1.67;;;;;16.07;60.38;102545.88;5036964;28;45337;-41
2023/10/04 03:35:48;;;;;;;;;2.00;2.00;;;;;16.06;60.59;102545.03;5036826;28;45476;-41
2023/10/04 03:38:14;;;;;;;;;3.33;1.00;;;;;16.02;60.40;102537.41;5037015;28;45324;-41
2023/10/04 03:40:39;;;;;;;;;3.67;1.00;;;;;15.91;60.42;102519.56;5036799;28;45533;-41
2023/10/04 03:43:07;;;;;;;;;1.25;1.25;;;;;16.01;60.60;102536.53;5037788;28;45424;-41
2023/10/04 03:45:39;;;;;;;;;3.50;2.00;;;;;15.96;60.56;102525.38;5040490;28;45342;-41
2023/10/04 03:48:15;;;;;;;;;0.00;0.00;;;;;15.90;60.73;102525.94;5038449;28;45587;-41
2023/10/04 03:50:48;;;;;;;;;1.25;1.25;;;;;15.95;60.71;102542.47;5040072;28;45263;-42
2023/10/04 03:53:15;;;;;;;;;4.50;0.25;;;;;15.91;60.64;102531.16;5040009;28;45431;-42
2023/10/04 03:55:42;;;;;;;;;1.00;1.00;;;;;15.90;61.01;102536.66;5040119;28;45463;-41
2023/10/04 03:58:09;;;;;;;;;1.33;1.00;;;;;15.90;61.08;102534.84;5040492;28;45269;-41
2023/10/04 04:00:36;;;;;;;;;5.67;2.00;;;;;15.91;61.29;102538.34;5039788;28;46480;-42
2023/10/04 04:03:01;;;;;;;;;3.50;2.25;;;;;15.87;61.17;102536.94;5040035;28;45264;-42
2023/10/04 04:05:28;;;;;;;;;5.25;1.00;;;;;15.87;61.06;102535.09;5073589;28;45489;-42
2023/10/04 04:07:53;;;;;;;;;0.67;0.67;;;;;15.86;61.13;102537.94;5062502;28;45547;-42
2023/10/04 04:10:19;;;;;;;;;0.67;0.67;;;;;15.85;61.26;102533.56;5080008;28;45439;-41
2023/10/04 04:12:46;;;;;;;;;2.33;1.33;;;;;15.84;61.13;102531.84;5080081;28;45326;-41
2023/10/04 04:15:14;;;;;;;;;0.67;0.00;;;;;15.82;61.36;102539.19;5079816;28;45318;-42
2023/10/04 04:17:40;;;;;;;;;2.50;1.00;;;;;15.81;61.22;102537.50;5080127;28;45274;-41
2023/10/04 04:20:14;;;;;;;;;2.33;1.00;;;;;15.78;61.17;102532.41;5078225;28;46223;-42
2023/10/04 04:22:39;;;;;;;;;1.67;1.00;;;;;15.80;61.51;102549.19;5079933;28;45220;-41
2023/10/04 04:25:14;;;;;;;;;1.00;1.00;;;;;15.78;61.81;102540.44;5079409;28;45295;-42
2023/10/04 04:27:43;;;;;;;;;1.33;0.67;;;;;15.70;61.60;102528.56;5080206;28;45340;-42
2023/10/04 04:30:16;;;;;;;;;2.00;0.33;;;;;15.78;61.33;102551.19;5079606;28;46189;-42
2023/10/04 04:32:42;;;;;;;;;2.00;0.00;;;;;15.75;61.62;102549.59;5077656;28;45439;-41
2023/10/04 04:35:08;;;;;;;;;1.00;1.00;;;;;15.77;61.72;102560.22;5080041;28;45434;-42
2023/10/04 04:37:36;;;;;;;;;5.33;1.00;;;;;15.74;62.03;102552.44;5075834;28;45433;-41
2023/10/04 04:40:08;;;;;;;;;3.00;1.00;;;;;15.76;62.14;102553.13;5038090;28;46113;-41
2023/10/04 04:42:35;;;;;;;;;5.00;1.67;;;;;15.74;61.81;102549.75;5039389;28;45506;-41
2023/10/04 04:45:02;;;;;;;;;0.67;0.33;;;;;15.75;61.94;102554.97;5039296;28;45488;-42
2023/10/04 04:47:28;;;;;;;;;2.00;2.00;;;;;15.74;61.89;102550.59;5039594;28;45175;-41
2023/10/04 04:49:56;;;;;;;;;1.67;1.00;;;;;15.74;61.77;102549.75;5039289;28;45657;-42
2023/10/04 04:52:21;;;;;;;;;3.33;2.00;;;;;15.73;61.80;102550.75;5039250;28;45297;-41
2023/10/04 04:54:46;;;;;;;;;1.00;0.33;;;;;15.70;62.19;102549.19;5045281;28;45546;-41
2023/10/04 04:57:11;;;;;;;;;5.00;0.67;;;;;15.69;62.19;102542.13;5079106;28;45484;-46
2023/10/04 04:59:37;;;;;;;;;1.33;1.33;;;;;15.68;62.12;102541.28;5079448;28;52017;-42
2023/10/04 05:02:03;;;;;;;;;0.33;0.33;;;;;15.66;62.11;102537.84;5079520;28;45285;-42
2023/10/04 05:04:28;;;;;;;;;1.00;1.00;;;;;15.58;62.21;102528.75;5079684;28;45268;-42
2023/10/04 05:06:54;;;;;;;;;2.33;2.00;;;;;15.54;62.52;102511.25;5079423;28;45358;-45
2023/10/04 05:09:19;;;;;;;;;1.00;1.00;;;;;15.64;62.87;102526.44;5079351;28;45360;-41
2023/10/04 05:11:45;;;;;;;;;4.00;2.00;;;;;15.54;63.08;102508.56;5079039;28;45439;-42
2023/10/04 05:14:11;;;;;;;;;1.00;1.00;;;;;15.73;63.37;102545.38;5077324;28;45436;-41
2023/10/04 05:16:36;;;;;;;;;5.00;1.00;;;;;15.77;63.17;102544.13;5079494;28;45356;-41
2023/10/04 05:19:03;;;;;;;;;4.00;2.00;;;;;15.78;63.05;102548.50;5079219;28;45327;-43
2023/10/04 05:21:29;;;;;;;;;3.33;2.00;;;;;15.78;63.31;102549.34;5079255;28;45411;-41
2023/10/04 05:23:56;;;;;;;;;1.00;1.00;;;;;15.77;63.03;102538.75;5078444;28;45420;-42
2023/10/04 05:26:21;;;;;;;;;6.00;2.33;;;;;15.82;63.28;102544.56;5061149;28;45225;-41
2023/10/04 05:28:47;;;;;;;;;4.67;2.00;;;;;15.85;63.10;102533.56;5079034;28;46023;-42
2023/10/04 05:31:12;;;;;;;;;2.33;2.00;;;;;15.87;63.10;102547.66;5076436;28;45399;-42
2023/10/04 05:33:37;;;;;;;;;4.67;2.00;;;;;15.77;63.16;102530.72;5079100;28;45434;-45
2023/10/04 05:36:03;;;;;;;;;4.00;2.00;;;;;15.89;62.81;102554.63;5079345;28;45291;-42
2023/10/04 05:38:29;;;;;;;;;2.67;2.67;;;;;15.90;63.27;102550.09;5077732;28;45573;-42
2023/10/04 05:40:55;;;;;;;;;5.00;3.00;;;;;15.83;63.06;102543.56;5078569;28;45532;-42
2023/10/04 05:43:20;;;;;;;;;2.00;2.00;;;;;15.89;62.81;102549.25;5078998;28;45375;-42
2023/10/04 05:45:47;;;;;;;;;1.67;1.00;;;;;15.87;63.00;102543.16;5078923;28;45427;-42
2023/10/04 05:48:23;;;;;;;;;5.00;2.00;;;;;15.92;63.31;102550.78;5076283;28;46346;-41
2023/10/04 05:50:54;;;;;;;;;2.67;2.67;;;;;15.93;62.58;102550.66;5078372;28;45324;-41
2023/10/04 05:53:22;;;;;;;;;8.33;5.00;;;;;15.85;62.10;102534.41;5078586;28;45430;-42
2023/10/04 05:55:50;;;;;;;;;10.67;7.33;;;;;15.85;62.36;102536.25;5078722;28;45244;-41
2023/10/04 05:58:16;;;;;;;;;6.33;4.67;;;;;15.75;62.51;102530.81;5078117;28;46207;-41
2023/10/04 06:00:42;;;;;;;;;8.33;5.33;;;;;15.69;62.32;102532.22;5078278;28;45522;-42
2023/10/04 06:03:11;;;;;;;;;11.00;5.00;;;;;15.63;62.21;102545.28;5076574;28;45840;-41
2023/10/04 06:05:42;;;;;;;;;7.33;6.00;;;;;15.54;62.35;102549.63;5078009;28;45323;-40
2023/10/04 06:08:15;;;;;;;;;10.00;6.67;;;;;15.39;62.51;102541.13;5076012;28;47134;-40
2023/10/04 06:10:42;;;;;;;;;7.33;5.00;;;;;15.43;62.52;102549.75;5078140;28;45415;-43
2023/10/04 06:13:11;;;;;;;;;6.00;6.00;;;;;15.37;62.92;102553.81;5078407;28;45415;-41
2023/10/04 06:15:40;;;;;;;;;5.00;5.00;;;;;15.36;62.99;102556.63;5078327;28;45442;-41
2023/10/04 06:18:07;;;;;;;;;18.00;11.67;;;;;15.33;63.53;102549.69;5078203;28;45276;-42
2023/10/04 06:23:05;;;;;;;;;5.33;5.00;;;;;15.35;63.04;102560.31;5078331;28;45241;-42
2023/10/04 06:25:31;;;;;;;;;9.00;5.00;;;;;15.33;63.19;102556.88;5078224;28;45617;-42
2023/10/04 06:27:59;;;;;;;;;6.00;4.00;;;;;15.17;62.87;102544.84;5078043;28;45676;-42
2023/10/04 06:30:31;;;;;;;;;6.00;4.33;;;;;15.22;62.90;102564.03;5078145;28;45303;-42
2023/10/04 06:32:59;;;;;;;;;4.00;4.00;;;;;15.26;63.47;102571.84;5078154;28;45240;-41
2023/10/04 06:35:25;;;;;;;;;9.00;5.00;;;;;15.23;63.63;102570.25;5078309;28;45343;-42
2023/10/04 06:38:03;;;;;;;;;5.00;5.00;;;;;15.19;63.37;102572.34;5077643;28;47363;-41
2023/10/04 06:40:31;;;;;;;;;9.33;6.00;;;;;15.26;63.19;102577.19;5077848;28;45220;-42
2023/10/04 06:42:58;;;;;;;;;5.67;4.00;;;;;15.27;63.47;102578.88;5077788;28;45434;-41
2023/10/04 06:45:24;;;;;;;;;9.67;4.67;;;;;15.18;63.40;102569.81;5078171;28;45413;-41
2023/10/04 06:47:53;;;;;;;;;9.00;7.67;;;;;15.30;63.03;102579.47;5059667;28;47019;-40
2023/10/04 06:50:20;;;;;;;;;9.00;5.00;;;;;15.34;63.20;102580.06;5077776;28;45355;-42
2023/10/04 06:52:52;;;;;;;;;8.67;5.33;;;;;15.28;63.17;102568.00;5077815;28;45361;-42
2023/10/04 06:55:19;;;;;;;;;6.33;6.33;;;;;15.51;63.03;102586.63;5078034;28;45557;-42
2023/10/04 06:57:45;;;;;;;;;12.33;9.00;;;;;15.61;62.79;102583.00;5077554;28;46090;-41
2023/10/04 07:00:17;;;;;;;;;5.00;5.00;;;;;15.68;62.38;102594.94;5076607;28;45246;-41
2023/10/04 07:02:49;;;;;;;;;8.33;4.33;;;;;15.70;62.20;102582.22;5077802;28;45219;-41
2023/10/04 07:05:18;;;;;;;;;8.00;6.67;;;;;15.76;62.03;102591.59;5077780;28;45397;-41
2023/10/04 07:07:47;;;;;;;;;9.00;7.00;;;;;15.76;62.01;102594.25;5077538;28;45304;-41
2023/10/04 07:10:14;;;;;;;;;11.67;5.33;;;;;15.63;61.78;102570.31;5077380;28;45636;-43
2023/10/04 07:12:41;;;;;;;;;6.33;5.67;;;;;15.81;61.87;102609.97;5077355;28;45498;-42
2023/10/04 07:15:08;;;;;;;;;9.33;4.67;;;;;15.90;61.45;102606.44;5077860;28;45264;-43
2023/10/04 07:17:33;;;;;;;;;9.00;5.00;;;;;15.79;61.63;102583.22;5076565;28;45232;-43
2023/10/04 07:19:59;;;;;;;;;7.00;5.00;;;;;16.01;62.00;102614.38;5077420;28;45418;-42
2023/10/04 07:22:29;;;;;;;;;14.00;5.00;;;;;16.13;61.23;102607.91;5077313;28;45460;-45
2023/10/04 07:24:57;;;;;;;;;8.67;4.00;;;;;16.16;60.73;102599.59;5077549;28;45341;-44
2023/10/04 07:27:23;;;;;;;;;6.33;4.00;;;;;16.14;60.74;102588.16;5077214;28;45472;-42
2023/10/04 07:29:48;;;;;;;;;13.33;8.00;;;;;16.32;60.95;102614.34;5059003;28;45236;-43
2023/10/04 07:32:13;;;;;;;;;12.67;8.00;;;;;16.39;60.95;102610.09;5077171;28;45248;-42
2023/10/04 07:34:39;;;;;;;;;11.00;6.67;;;;;16.52;60.16;102615.19;5076664;28;45224;-44
2023/10/04 07:37:04;;;;;;;;;6.33;5.00;;;;;16.51;60.35;102614.34;5075889;28;49695;-44
2023/10/04 07:39:32;;;;;;;;;9.00;5.00;;;;;16.58;59.97;102626.22;5077188;28;45194;-42
2023/10/04 07:41:57;;;;;;;;;8.33;6.00;;;;;16.64;59.83;102625.69;5076461;28;45261;-42
2023/10/04 07:44:24;;;;;;;;;7.33;7.33;;;;;16.79;59.79;102626.13;5077446;28;45346;-42
2023/10/04 07:46:50;;;;;;;;;9.67;7.67;;;;;16.95;59.60;102629.09;5077071;28;47258;-45
2023/10/04 07:49:16;;;;;;;;;9.00;6.00;;;;;17.13;58.86;102629.22;5076950;28;45397;-42
2023/10/04 07:51:42;;;;;;;;;10.33;5.67;;;;;17.31;58.52;102633.84;5077248;28;45376;-41
2023/10/04 07:54:07;;;;;;;;;6.67;6.67;;;;;17.42;58.37;102639.91;5058781;28;45431;-42
2023/10/04 07:56:34;;;;;;;;;9.00;5.33;;;;;17.58;58.44;102650.09;5076860;28;47084;-42
2023/10/04 07:59:01;;;;;;;;;11.75;4.75;;;;;17.80;57.70;102650.75;5076844;28;45310;-41
2023/10/04 08:01:26;;;;;;;;;8.00;5.67;;;;;17.97;57.47;102641.88;5077011;28;45239;-42
2023/10/04 08:03:52;;;;;;;;;5.00;4.00;;;;;18.13;57.12;102643.94;5077208;28;45228;-42
2023/10/04 08:06:18;;;;;;;;;6.67;5.33;;;;;18.28;56.61;102650.50;5076955;28;45432;-42
2023/10/04 08:08:45;;;;;;;;;2.00;1.75;;;;;18.38;56.13;102645.06;5076721;28;45542;-41
2023/10/04 08:11:11;;;;;;;;;6.25;4.00;;;;;18.68;55.43;102651.94;5076332;28;45394;-42
2023/10/04 08:13:38;;;;;;;;;5.75;5.75;;;;;18.88;54.80;102647.28;5076836;28;45288;-42
2023/10/04 08:16:04;;;;;;;;;7.00;4.75;;;;;19.06;54.82;102644.56;5073406;28;45269;-42
2023/10/04 08:18:30;;;;;;;;;9.00;6.00;;;;;19.25;53.77;102657.84;5076644;28;45334;-44
2023/10/04 08:20:55;;;;;;;;;4.00;4.00;;;;;19.32;53.43;102644.59;5076011;28;45262;-44
2023/10/04 08:23:23;;;;;;;;;8.50;5.25;;;;;19.35;53.33;102644.28;5077219;28;45349;-44
2023/10/04 08:25:51;;;;;;;;;6.75;4.00;;;;;19.41;53.18;102638.22;5076417;28;46185;-42
2023/10/04 08:28:17;;;;;;;;;10.50;6.75;;;;;19.40;53.28;102628.44;5058339;28;45714;-42
2023/10/04 08:30:42;;;;;;;;;7.25;5.00;;;;;19.51;52.97;102638.13;5080232;28;45433;-43
2023/10/04 08:33:08;;;;;;;;;11.00;8.00;;;;;19.59;52.92;102638.16;5080365;28;45273;-43
2023/10/04 08:35:36;;;;;;;;;8.00;8.00;;;;;19.66;52.94;102632.00;5080051;28;45344;-43
2023/10/04 08:38:06;;;;;;;;;6.50;6.00;;;;;19.72;52.49;102630.53;5079870;28;45253;-42
2023/10/04 08:40:38;;;;;;;;;9.50;4.75;;;;;19.78;52.22;102629.03;5080140;28;45342;-43
2023/10/04 08:43:05;;;;;;;;;8.75;4.50;;;;;19.82;52.53;102631.25;5080190;28;45346;-51
2023/10/04 08:45:33;;;;;;;;;8.50;6.00;;;;;19.77;51.90;102605.75;5079910;28;47373;-43
2023/10/04 08:47:59;;;;;;;;;6.00;4.75;;;;;19.82;52.07;102631.25;5079659;28;45386;-43
2023/10/04 08:50:34;;;;;;;;;5.75;5.00;;;;;19.88;51.72;102627.03;5079970;28;45283;-41
2023/10/04 08:53:14;;;;;;;;;6.25;6.00;;;;;19.99;52.31;102634.00;5079823;28;45533;-42
2023/10/04 08:55:43;;;;;;;;;7.75;4.75;;;;;20.03;51.63;102614.63;5078826;28;46087;-42
2023/10/04 08:58:09;;;;;;;;;6.75;5.25;;;;;20.28;51.44;102631.75;5079429;28;45327;-41
2023/10/04 09:00:35;;;;;;;;;10.00;6.00;;;;;20.42;51.04;102635.66;5079662;28;45510;-42
2023/10/04 09:03:05;;;;;;;;;10.50;7.75;;;;;20.55;50.97;102646.03;5079615;28;45238;-43
2023/10/04 09:05:33;;;;;;;;;9.50;7.00;;;;;20.62;50.12;102645.19;5079003;28;46512;-44
2023/10/04 09:07:58;;;;;;;;;6.50;6.00;;;;;20.65;50.35;102641.31;5079103;28;45170;-41
2023/10/04 09:10:25;;;;;;;;;7.50;5.25;;;;;20.80;50.07;102653.16;5078906;28;45446;-43
2023/10/04 09:12:51;;;;;;;;;5.75;5.75;;;;;20.89;49.91;102648.59;5079453;28;45882;-41
2023/10/04 09:15:16;;;;;;;;;9.25;6.00;;;;;20.96;49.85;102640.66;5079055;28;45253;-40
2023/10/04 09:17:47;;;;;;;;;9.00;6.50;;;;;21.03;49.28;102637.13;5079189;28;45300;-41
2023/10/04 09:20:16;;;;;;;;;8.00;6.00;;;;;21.15;49.43;102637.59;5079307;28;45375;-41
2023/10/04 09:22:41;;;;;;;;;9.50;5.50;;;;;21.20;49.21;102634.41;5078948;28;45345;-42
2023/10/04 09:25:07;;;;;;;;;11.00;5.00;;;;;21.26;48.78;102634.53;5078847;28;47263;-41
2023/10/04 09:27:32;;;;;;;;;8.50;5.00;;;;;21.32;49.20;102639.31;5078009;28;46182;-42
2023/10/04 09:29:59;;;;;;;;;7.25;4.50;;;;;21.39;48.47;102634.03;5078761;28;45659;-41
2023/10/04 09:32:35;;;;;;;;;6.00;5.75;;;;;21.51;48.77;102643.50;5079247;28;45391;-41
2023/10/04 09:35:01;;;;;;;;;5.75;5.25;;;;;21.66;48.07;102646.34;5078171;28;46429;-41
2023/10/04 09:37:26;;;;;;;;;7.25;4.50;;;;;21.75;47.67;102645.31;5078661;28;45402;-41
2023/10/04 09:40:05;;;;;;;;;7.00;4.75;;;;;21.79;47.81;102645.81;5077569;28;45879;-41
2023/10/04 09:42:43;;;;;;;;;6.00;4.50;;;;;21.81;47.54;102633.75;5078404;28;45228;-42
2023/10/04 09:45:09;;;;;;;;;11.20;4.80;;;;;21.85;47.27;102635.09;5078701;28;46397;-42
2023/10/04 09:47:37;;;;;;;;;7.00;4.25;;;;;21.90;47.40;102629.16;5078645;28;45249;-43
2023/10/04 09:50:10;;;;;;;;;6.40;2.20;;;;;21.93;47.26;102620.69;5078867;28;45332;-42
2023/10/04 09:52:37;;;;;;;;;5.25;3.50;;;;;21.99;46.38;102611.00;5078903;28;45320;-43
2023/10/04 09:55:05;;;;;;;;;6.00;3.40;;;;;22.08;46.40;102620.75;5078588;28;45991;-41
2023/10/04 09:57:35;;;;;;;;;7.40;4.00;;;;;22.25;46.18;102619.72;5078333;28;45539;-43
2023/10/04 10:00:05;;;;;;;;;7.40;5.00;;;;;22.41;44.59;102621.44;5078662;28;45322;-42
2023/10/04 10:02:36;;;;;;;;;7.00;4.00;;;;;22.57;44.88;102621.34;5079005;28;45341;-40
2023/10/04 10:05:06;;;;;;;;;2.80;2.00;;;;;22.76;44.94;102616.47;5077518;28;46444;-41
2023/10/04 10:07:36;;;;;;;;;3.00;3.00;;;;;22.92;44.42;102610.91;5078413;28;45216;-41
2023/10/04 10:10:16;;;;;;;;;5.80;2.40;;;;;23.05;44.02;102619.31;5077723;28;45336;-41
2023/10/04 10:12:43;;;;;;;;;5.00;2.20;;;;;23.19;43.50;102606.78;5078372;28;45224;-41
2023/10/04 10:15:11;;;;;;;;;6.00;2.80;;;;;23.41;42.81;102603.13;5078069;28;46969;-42
2023/10/04 10:17:38;;;;;;;;;4.60;4.00;;;;;23.47;42.65;102604.28;5078208;28;45519;-41
2023/10/04 10:20:15;;;;;;;;;3.80;2.00;;;;;23.47;42.30;102592.56;5078637;28;45291;-41
2023/10/04 10:22:59;;;;;;;;;4.20;3.00;;;;;23.65;42.54;102607.50;5078310;28;45224;-40
2023/10/04 10:25:27;;;;;;;;;2.80;1.80;;;;;23.77;42.17;102599.72;5078087;28;45707;-41
2023/10/04 10:27:57;;;;;;;;;3.40;1.60;;;;;23.84;41.96;102597.06;5077990;28;45241;-41
2023/10/04 10:30:23;;;;;;;;;5.60;1.20;;;;;23.87;41.55;102593.97;5078221;28;45280;-41
2023/10/04 10:32:55;;;;;;;;;5.00;3.00;;;;;23.84;41.41;102594.34;5078007;28;45503;-41
2023/10/04 10:36:06;;;;;;;;;3.00;1.80;;;;;23.88;41.44;102593.78;5077637;28;45482;-42
2023/10/04 10:38:40;;;;;;;;;4.40;0.80;;;;;23.96;40.74;102600.97;5077266;28;45440;-43
2023/10/04 10:41:07;;;;;;;;;6.40;4.20;;;;;23.96;40.70;102598.25;5077996;28;45354;-42
2023/10/04 10:43:35;;;;;;;;;2.00;2.00;;;;;23.95;40.61;102604.75;5078099;28;45245;-44
2023/10/04 10:46:26;;;;;;;;;4.60;4.00;;;;;24.00;40.42;102604.16;5077942;28;45370;-42
2023/10/04 10:48:57;;;;;;;;;9.20;5.40;;;;;24.04;40.79;102602.75;5078085;28;45352;-42
2023/10/04 10:51:45;;;;;;;;;4.00;3.00;;;;;24.20;40.70;102591.66;5077581;28;45260;-44
2023/10/04 10:54:12;;;;;;;;;5.80;5.20;;;;;24.32;39.67;102587.38;5077793;28;45382;-42
2023/10/04 10:56:38;;;;;;;;;8.20;5.20;;;;;24.43;39.64;102583.31;5077430;28;45635;-41
2023/10/04 10:59:06;;;;;;;;;4.00;2.50;;;;;24.46;40.11;102582.09;5077767;28;45422;-41
2023/10/04 11:01:32;;;;;;;;;5.00;3.20;;;;;24.56;39.09;102583.44;5077891;28;45347;-42
2023/10/04 11:03:59;;;;;;;;;4.25;4.25;;;;;24.60;39.19;102570.31;5077636;28;45382;-44
2023/10/04 11:06:25;;;;;;;;;2.00;1.80;;;;;25.20;38.73;102578.97;5077641;28;46356;-42
2023/10/04 11:08:51;;;;;;;;;4.25;3.75;;;;;26.12;37.22;102582.19;5059368;28;45396;-42
2023/10/04 11:11:17;;;;;;;;;4.00;3.25;;;;;26.75;36.38;102581.88;5077686;28;45374;-42
2023/10/04 11:13:45;;;;;;;;;5.50;3.00;;;;;27.28;35.74;102561.88;5077766;28;45330;-43
2023/10/04 11:16:12;;;;;;;;;4.00;2.20;;;;;27.65;34.99;102554.00;5077330;28;46844;-43
2023/10/04 11:18:38;;;;;;;;;2.80;1.40;;;;;28.14;34.76;102557.97;5077475;28;45530;-42
2023/10/04 11:21:04;;;;;;;;;3.20;2.80;;;;;28.38;34.39;102559.09;5077608;28;45261;-43
2023/10/04 11:23:30;;;;;;;;;2.75;2.75;;;;;28.08;33.79;102543.28;5077756;28;45379;-44
2023/10/04 11:25:59;;;;;;;;;3.60;3.00;;;;;27.77;35.25;102550.41;5077189;28;46507;-41
2023/10/04 11:28:25;;;;;;;;;4.40;3.80;;;;;27.58;35.11;102556.75;5077053;28;45501;-41
2023/10/04 11:30:50;;;;;;;;;3.20;3.00;;;;;27.36;35.01;102557.03;5077216;28;45443;-41